createdAt,value
2019-01-25T00:01:21.490Z,102.07
2019-01-25T00:04:01.564Z,94.28
2019-01-25T00:06:41.485Z,91.30
2019-01-25T00:09:21.750Z,87.33
2019-01-25T00:12:01.715Z,91.15
2019-01-25T00:14:41.992Z,91.35
2019-01-25T00:17:22.099Z,88.00
2019-01-25T00:20:02.114Z,93.50
2019-01-25T00:22:41.950Z,104.75
2019-01-25T00:25:21.870Z,96.75
2019-01-25T00:28:02.345Z,91.63
2019-01-25T00:30:42.166Z,86.20
2019-01-25T00:33:22.058Z,89.13
2019-01-25T00:36:02.191Z,94.40
2019-01-25T00:38:42.106Z,90.47
2019-01-25T00:41:22.017Z,92.95
2019-01-25T00:44:01.994Z,94.70
2019-01-25T00:46:41.990Z,101.33
2019-01-25T00:49:21.918Z,93.25
2019-01-25T00:52:02.083Z,94.03
2019-01-25T00:54:42.325Z,91.87
2019-01-25T00:57:22.099Z,93.42
2019-01-25T01:00:02.230Z,100.42
2019-01-25T01:02:42.898Z,98.33
2019-01-25T01:05:23.029Z,90.25
2019-01-25T01:08:02.746Z,100.15
2019-01-25T01:10:42.966Z,99.95
2019-01-25T01:13:22.922Z,106.05
2019-01-25T01:16:02.790Z,94.95
2019-01-25T01:18:42.586Z,95.35
2019-01-25T01:21:22.700Z,86.97
2019-01-25T01:24:02.706Z,93.82
2019-01-25T01:26:42.596Z,102.60
2019-01-25T01:29:22.643Z,87.85
2019-01-25T01:32:02.873Z,91.25
2019-01-25T01:34:42.658Z,97.17
2019-01-25T01:37:22.763Z,84.77
2019-01-25T01:40:02.634Z,91.65
2019-01-25T01:42:42.991Z,94.03
2019-01-25T01:45:23.200Z,90.80
2019-01-25T01:48:03.231Z,88.72
2019-01-25T01:50:43.130Z,90.05
2019-01-25T01:53:23.138Z,107.47
2019-01-25T01:56:02.997Z,87.47
2019-01-25T01:58:43.122Z,99.90
2019-01-25T02:01:23.164Z,93.30
2019-01-25T02:04:03.282Z,89.10
2019-01-25T02:06:43.370Z,97.27
2019-01-25T02:09:23.170Z,90.35
2019-01-25T02:12:02.905Z,83.15
2019-01-25T02:14:42.962Z,93.05
2019-01-25T02:17:22.913Z,103.78
2019-01-25T02:20:02.981Z,93.47
2019-01-25T02:22:43.026Z,91.12
2019-01-25T02:25:22.889Z,95.30
2019-01-25T02:28:02.662Z,97.22
2019-01-25T02:30:42.728Z,95.60
2019-01-25T02:33:22.590Z,92.02
2019-01-25T02:36:02.823Z,95.17
2019-01-25T02:38:42.722Z,103.90
2019-01-25T02:41:22.765Z,86.95
2019-01-25T02:44:02.649Z,102.30
2019-01-25T02:46:42.559Z,95.83
2019-01-25T02:49:22.684Z,96.10
2019-01-25T02:52:02.535Z,93.42
2019-01-25T02:54:42.661Z,99.83
2019-01-25T02:57:22.724Z,91.90
2019-01-25T03:00:02.820Z,102.27
2019-01-25T03:02:43.111Z,93.65
2019-01-25T03:05:23.137Z,91.70
2019-01-25T03:08:03.054Z,86.20
2019-01-25T03:10:47.283Z,96.35
2019-01-25T03:13:25.162Z,91.67
2019-01-25T03:16:05.135Z,105.67
2019-01-25T03:18:45.179Z,90.07
2019-01-25T03:21:25.059Z,95.22
2019-01-25T03:24:05.308Z,95.95
2019-01-25T03:26:45.414Z,92.85
2019-01-25T03:29:25.514Z,98.52
2019-01-25T03:32:05.736Z,101.75
2019-01-25T03:34:45.936Z,95.70
2019-01-25T03:37:25.927Z,93.55
2019-01-25T03:40:06.006Z,102.65
2019-01-25T03:42:46.075Z,103.38
2019-01-25T03:45:26.361Z,102.50
2019-01-25T03:48:06.331Z,95.97
2019-01-25T03:50:46.391Z,98.03
2019-01-25T03:53:26.231Z,93.45
2019-01-25T03:56:06.238Z,94.83
2019-01-25T03:58:46.352Z,98.17
2019-01-25T04:01:26.331Z,93.75
2019-01-25T04:04:06.609Z,104.10
2019-01-25T04:06:46.634Z,95.67
2019-01-25T04:09:26.849Z,94.97
2019-01-25T04:12:06.802Z,92.80
2019-01-25T04:14:46.804Z,97.05
2019-01-25T04:17:26.650Z,97.17
2019-01-25T04:20:06.915Z,90.60
2019-01-25T04:22:46.916Z,85.53
2019-01-25T04:25:26.970Z,101.05
2019-01-25T04:28:07.230Z,90.67
2019-01-25T04:30:47.242Z,99.67
2019-01-25T04:33:27.461Z,98.55
2019-01-25T04:36:07.376Z,101.05
2019-01-25T04:38:47.199Z,99.42
2019-01-25T04:41:27.273Z,90.90
2019-01-25T04:44:07.231Z,92.92
2019-01-25T04:46:47.271Z,96.82
2019-01-25T04:49:27.244Z,93.97
2019-01-25T04:52:08.675Z,91.53
2019-01-25T04:54:49.317Z,94.15
2019-01-25T04:57:29.285Z,98.42
2019-01-25T05:00:11.090Z,100.80
2019-01-25T05:02:51.341Z,96.85
2019-01-25T05:05:31.315Z,79.20
2019-01-25T05:08:11.425Z,80.15
2019-01-25T05:10:51.410Z,87.45
2019-01-25T05:13:31.752Z,79.30
2019-01-25T05:16:12.452Z,87.42
2019-01-25T05:18:52.396Z,82.67
2019-01-25T05:21:32.285Z,94.10
2019-01-25T05:24:12.151Z,80.87
2019-01-25T05:26:52.156Z,89.90
2019-01-25T05:29:32.373Z,79.70
2019-01-25T05:32:12.357Z,84.07
2019-01-25T05:34:52.222Z,81.70
2019-01-25T05:37:32.076Z,81.95
2019-01-25T05:40:14.234Z,76.17
2019-01-25T05:42:54.229Z,76.25
2019-01-25T05:45:34.076Z,78.22
2019-01-25T05:48:14.048Z,82.80
2019-01-25T05:50:54.254Z,81.12
2019-01-25T05:53:34.240Z,81.67
2019-01-25T05:56:14.389Z,83.05
2019-01-25T05:58:54.253Z,80.75
2019-01-25T06:01:34.188Z,83.05
2019-01-25T06:04:14.093Z,64.03
2019-01-25T06:06:54.032Z,68.95
2019-01-25T06:09:34.100Z,73.45
2019-01-25T06:12:14.136Z,70.55
2019-01-25T06:14:54.301Z,82.53
2019-01-25T06:17:34.373Z,76.92
2019-01-25T06:20:14.411Z,69.40
2019-01-25T06:22:54.446Z,58.13
2019-01-25T06:25:34.421Z,53.95
2019-01-25T06:28:14.310Z,56.88
2019-01-25T06:30:54.466Z,52.15
2019-01-25T06:33:34.505Z,48.45
2019-01-25T06:36:14.522Z,56.80
2019-01-25T06:38:54.245Z,54.55
2019-01-25T06:41:34.112Z,57.50
2019-01-25T06:44:14.380Z,53.92
2019-01-25T06:46:54.441Z,50.85
2019-01-25T06:49:34.636Z,55.80
2019-01-25T06:52:14.541Z,53.60
2019-01-25T06:54:54.410Z,47.53
2019-01-25T06:57:40.888Z,54.67
2019-01-25T07:00:23.022Z,54.03
2019-01-25T07:03:02.809Z,50.12
2019-01-25T07:05:42.876Z,58.10
2019-01-25T07:08:22.968Z,55.70
2019-01-25T07:11:03.843Z,49.73
2019-01-25T07:13:44.181Z,52.78
2019-01-25T07:16:24.390Z,51.98
2019-01-25T07:19:04.505Z,55.05
2019-01-25T07:21:44.556Z,52.70
2019-01-25T07:24:24.386Z,52.98
2019-01-25T07:27:04.524Z,55.00
2019-01-25T07:29:44.581Z,51.88
2019-01-25T07:32:24.673Z,49.60
2019-01-25T07:35:04.854Z,53.00
2019-01-25T07:37:44.741Z,48.60
2019-01-25T07:40:24.810Z,42.80
2019-01-25T07:43:04.847Z,45.78
2019-01-25T07:45:44.883Z,49.40
2019-01-25T07:48:24.739Z,54.98
2019-01-25T07:51:04.913Z,49.85
2019-01-25T07:53:45.184Z,51.30
2019-01-25T07:56:25.070Z,53.33
2019-01-25T07:59:05.065Z,56.88
2019-01-25T08:01:45.026Z,52.67
2019-01-25T08:04:25.118Z,58.83
2019-01-25T08:07:05.084Z,61.90
2019-01-25T08:09:45.127Z,55.90
2019-01-25T08:12:24.921Z,52.95
2019-01-25T08:15:04.856Z,58.00
2019-01-25T08:17:45.003Z,56.05
2019-01-25T08:20:24.953Z,63.58
2019-01-25T08:23:05.272Z,57.60
2019-01-25T08:25:45.304Z,56.92
2019-01-25T08:28:25.533Z,58.35
2019-01-25T08:31:05.665Z,64.45
2019-01-25T08:33:45.775Z,57.90
2019-01-25T08:36:25.715Z,55.75
2019-01-25T08:39:05.826Z,58.25
2019-01-25T08:41:46.183Z,60.95
2019-01-25T08:44:26.514Z,59.08
2019-01-25T08:47:06.248Z,55.83
2019-01-25T08:49:46.295Z,58.73
2019-01-25T08:52:26.433Z,55.73
2019-01-25T08:55:06.242Z,56.23
2019-01-25T08:57:46.450Z,57.55
2019-01-25T09:00:26.634Z,61.50
2019-01-25T09:03:07.097Z,57.80
2019-01-25T09:05:47.021Z,56.75
2019-01-25T09:08:26.993Z,60.25
2019-01-25T09:11:07.250Z,55.17
2019-01-25T09:13:47.396Z,52.90
2019-01-25T09:16:27.241Z,63.13
2019-01-25T09:19:07.257Z,63.78
2019-01-25T09:21:47.240Z,63.52
2019-01-25T09:24:27.074Z,61.50
2019-01-25T09:27:07.141Z,59.00
2019-01-25T09:29:47.158Z,63.33
2019-01-25T09:32:27.095Z,64.90
2019-01-25T09:35:07.293Z,61.10
2019-01-25T09:37:47.297Z,58.87
2019-01-25T09:40:28.109Z,56.23
2019-01-25T09:43:08.371Z,59.10
2019-01-25T09:45:48.589Z,55.48
2019-01-25T09:48:28.632Z,51.15
2019-01-25T09:51:08.777Z,55.85
2019-01-25T09:53:48.772Z,53.68
2019-01-25T09:56:28.838Z,53.52
2019-01-25T09:59:09.093Z,47.67
2019-01-25T10:01:49.344Z,56.37
2019-01-25T10:04:29.157Z,60.73
2019-01-25T10:07:09.180Z,56.05
2019-01-25T10:09:49.401Z,57.05
2019-01-25T10:12:29.363Z,47.93
2019-01-25T10:15:09.322Z,53.35
2019-01-25T10:17:49.238Z,55.03
2019-01-25T10:20:29.366Z,51.33
2019-01-25T10:23:09.479Z,51.77
2019-01-25T10:25:49.596Z,53.25
2019-01-25T10:28:29.552Z,55.90
2019-01-25T10:31:09.494Z,50.10
2019-01-25T10:33:49.527Z,54.40
2019-01-25T10:36:29.613Z,47.75
2019-01-25T10:39:09.558Z,46.85
2019-01-25T10:41:49.697Z,51.00
2019-01-25T10:44:29.737Z,44.50
2019-01-25T10:47:09.692Z,46.30
2019-01-25T10:49:49.753Z,44.60
2019-01-25T10:52:29.803Z,44.90
2019-01-25T10:55:09.899Z,43.25
2019-01-25T10:57:49.577Z,48.83
2019-01-25T11:00:29.563Z,46.92
2019-01-25T11:03:09.837Z,46.83
2019-01-25T11:05:49.860Z,44.20
2019-01-25T11:08:29.830Z,47.20
2019-01-25T11:11:10.238Z,45.78
2019-01-25T11:13:50.178Z,49.42
2019-01-25T11:16:30.218Z,48.85
2019-01-25T11:19:10.355Z,48.08
2019-01-25T11:21:50.540Z,47.85
2019-01-25T11:24:30.552Z,53.17
2019-01-25T11:27:10.513Z,55.30
2019-01-25T11:29:50.582Z,50.50
2019-01-25T11:32:30.889Z,53.58
2019-01-25T11:35:10.883Z,51.60
2019-01-25T11:37:51.043Z,51.55
2019-01-25T11:40:30.961Z,53.90
2019-01-25T11:43:11.019Z,59.77
2019-01-25T11:45:54.356Z,55.43
2019-01-25T11:48:32.830Z,47.70
2019-01-25T11:51:12.850Z,53.40
2019-01-25T11:53:52.971Z,44.77
2019-01-25T11:56:32.958Z,52.78
2019-01-25T11:59:13.000Z,46.20
2019-01-25T12:01:52.984Z,50.35
2019-01-25T12:04:33.255Z,48.80
2019-01-25T12:07:13.582Z,43.45
2019-01-25T12:09:53.534Z,42.50
2019-01-25T12:12:33.635Z,40.43
2019-01-25T12:15:13.674Z,42.65
2019-01-25T12:17:53.868Z,40.83
2019-01-25T12:20:33.892Z,37.08
2019-01-25T12:23:14.249Z,43.75
2019-01-25T12:25:54.376Z,40.45
2019-01-25T12:28:34.596Z,42.08
2019-01-25T12:31:14.536Z,37.70
2019-01-25T12:33:54.677Z,42.62
2019-01-25T12:36:34.397Z,43.63
2019-01-25T12:39:14.473Z,44.23
2019-01-25T12:41:54.469Z,39.70
2019-01-25T12:44:34.606Z,39.25
2019-01-25T12:47:14.580Z,46.10
2019-01-25T12:49:54.730Z,42.05
2019-01-25T12:52:34.791Z,38.25
2019-01-25T12:55:14.758Z,46.15
2019-01-25T12:57:54.909Z,41.58
2019-01-25T13:00:34.823Z,41.85
2019-01-25T13:03:14.891Z,45.17
2019-01-25T13:05:55.405Z,44.98
2019-01-25T13:08:35.576Z,42.05
2019-01-25T13:11:16.125Z,47.17
2019-01-25T13:13:59.416Z,45.48
2019-01-25T13:16:39.215Z,46.00
2019-01-25T13:19:19.260Z,43.98
2019-01-25T13:21:59.348Z,43.75
2019-01-25T13:24:39.595Z,40.83
2019-01-25T13:27:19.569Z,46.15
2019-01-25T13:29:59.735Z,45.88
2019-01-25T13:32:40.072Z,43.30
2019-01-25T13:35:20.282Z,46.70
2019-01-25T13:38:00.277Z,46.50
2019-01-25T13:40:41.816Z,46.65
2019-01-25T13:43:21.972Z,48.80
2019-01-25T13:46:01.958Z,43.70
2019-01-25T13:48:42.311Z,48.52
2019-01-25T13:51:22.369Z,43.25
2019-01-25T13:54:02.242Z,49.13
2019-01-25T13:56:43.093Z,42.93
2019-01-25T13:59:23.064Z,46.25
2019-01-25T14:02:02.911Z,49.75
2019-01-25T14:04:42.805Z,48.20
2019-01-25T14:07:22.680Z,50.08
2019-01-25T14:10:02.721Z,49.20
2019-01-25T14:12:42.744Z,46.88
2019-01-25T14:15:22.703Z,49.33
2019-01-25T14:18:02.851Z,47.30
2019-01-25T14:20:42.675Z,49.25
2019-01-25T14:23:22.641Z,47.38
2019-01-25T14:26:02.593Z,43.48
2019-01-25T14:28:42.666Z,46.30
2019-01-25T14:31:22.460Z,42.85
2019-01-25T14:34:02.493Z,45.88
2019-01-25T14:36:42.597Z,48.30
2019-01-25T14:39:22.752Z,45.80
2019-01-25T14:42:02.606Z,46.75
2019-01-25T14:44:42.729Z,42.58
2019-01-25T14:47:22.731Z,40.05
2019-01-25T14:50:02.672Z,44.18
2019-01-25T14:52:42.749Z,41.53
2019-01-25T14:55:22.446Z,42.08
2019-01-25T14:58:02.343Z,40.03
2019-01-25T15:00:42.453Z,35.10
2019-01-25T15:03:22.528Z,37.73
2019-01-25T15:06:02.609Z,39.40
2019-01-25T15:08:42.770Z,40.80
2019-01-25T15:11:22.770Z,39.10
2019-01-25T15:14:02.772Z,34.67
2019-01-25T15:16:42.681Z,34.85
2019-01-25T15:19:22.841Z,42.85
2019-01-25T15:22:02.597Z,39.70
2019-01-25T15:24:43.096Z,34.75
2019-01-25T15:27:22.991Z,37.10
2019-01-25T15:30:03.120Z,40.52
2019-01-25T15:32:43.145Z,39.00
2019-01-25T15:35:23.369Z,39.58
2019-01-25T15:38:03.161Z,45.38
2019-01-25T15:40:43.462Z,41.88
2019-01-25T15:43:23.458Z,38.50
2019-01-25T15:46:03.478Z,42.95
2019-01-25T15:48:43.260Z,42.85
2019-01-25T15:51:23.245Z,48.08
2019-01-25T15:54:03.142Z,43.70
2019-01-25T15:56:43.406Z,44.83
2019-01-25T15:59:23.259Z,43.60
2019-01-25T16:02:03.393Z,52.53
2019-01-25T16:04:43.561Z,61.23
2019-01-25T16:07:23.578Z,53.85
2019-01-25T16:10:03.681Z,54.80
2019-01-25T16:12:44.054Z,61.98
2019-01-25T16:15:24.411Z,53.68
2019-01-25T16:18:04.347Z,55.85
2019-01-25T16:20:44.322Z,49.90
2019-01-25T16:23:24.130Z,64.37
2019-01-25T16:26:04.512Z,59.13
2019-01-25T16:28:44.636Z,55.80
2019-01-25T16:31:24.987Z,64.67
2019-01-25T16:34:04.983Z,68.30
2019-01-25T16:36:44.875Z,72.40
2019-01-25T16:39:25.337Z,67.05
2019-01-25T16:42:05.282Z,61.40
2019-01-25T16:44:45.403Z,68.15
2019-01-25T16:47:25.341Z,71.30
2019-01-25T16:50:05.683Z,76.15
2019-01-25T16:52:45.877Z,74.27
2019-01-25T16:55:26.079Z,77.12
2019-01-25T16:58:06.112Z,73.92
2019-01-25T17:00:46.049Z,65.40
2019-01-25T17:03:26.015Z,67.17
2019-01-25T17:06:05.837Z,68.70
2019-01-25T17:08:45.795Z,73.60
2019-01-25T17:11:26.071Z,63.95
2019-01-25T17:14:05.835Z,71.82
2019-01-25T17:16:45.753Z,69.30
2019-01-25T17:19:25.494Z,73.10
2019-01-25T17:22:05.458Z,76.57
2019-01-25T17:24:45.478Z,66.07
2019-01-25T17:27:25.585Z,69.65
2019-01-25T17:30:06.124Z,75.90
2019-01-25T17:32:46.111Z,74.15
2019-01-25T17:35:26.178Z,76.97
2019-01-25T17:38:06.373Z,77.17
2019-01-25T17:43:30.337Z,69.65
2019-01-25T17:48:53.472Z,74.60
2019-01-25T17:51:33.666Z,90.62
2019-01-25T17:54:13.484Z,74.37
2019-01-25T17:56:53.527Z,77.12
2019-01-25T17:59:33.656Z,75.75
2019-01-25T18:02:13.697Z,79.50
2019-01-25T18:04:53.888Z,72.37
2019-01-25T18:07:34.469Z,69.82
2019-01-25T18:10:14.987Z,79.15
2019-01-25T18:12:54.982Z,74.35
2019-01-25T18:15:35.089Z,67.62
2019-01-25T18:18:15.023Z,70.00
2019-01-25T18:20:55.406Z,69.90
2019-01-25T18:26:17.132Z,67.37
2019-01-25T18:28:57.359Z,63.50
2019-01-25T18:31:37.361Z,67.27
2019-01-25T18:34:17.518Z,73.12
2019-01-25T18:36:57.651Z,79.80
2019-01-25T18:39:39.199Z,72.15
2019-01-25T18:42:19.154Z,67.35
2019-01-25T18:44:59.215Z,61.70
2019-01-25T18:47:39.286Z,61.60
2019-01-25T18:50:19.274Z,56.55
2019-01-25T18:52:59.225Z,59.50
2019-01-25T18:55:39.118Z,51.95
2019-01-25T18:58:19.216Z,49.53
2019-01-25T19:00:59.228Z,55.63
2019-01-25T19:03:39.159Z,50.67
2019-01-25T19:06:19.221Z,50.28
2019-01-25T19:08:59.403Z,47.70
2019-01-25T19:11:39.359Z,47.00
2019-01-25T19:14:19.336Z,44.98
2019-01-25T19:16:59.034Z,49.67
2019-01-25T19:19:39.102Z,42.13
2019-01-25T19:22:19.168Z,48.20
2019-01-25T19:24:59.201Z,48.13
2019-01-25T19:27:39.375Z,54.23
2019-01-25T19:30:20.508Z,43.75
2019-01-25T19:33:00.237Z,43.40
2019-01-25T19:35:40.341Z,44.63
2019-01-25T19:38:20.019Z,42.13
2019-01-25T19:41:00.058Z,43.85
2019-01-25T19:43:40.433Z,42.62
2019-01-25T19:46:21.142Z,47.58
2019-01-25T19:49:01.415Z,35.25
2019-01-25T19:51:41.494Z,43.13
2019-01-25T19:54:21.430Z,44.50
2019-01-25T19:57:01.502Z,36.85
2019-01-25T19:59:41.597Z,38.17
2019-01-25T20:02:21.623Z,46.15
2019-01-25T20:05:01.527Z,41.75
2019-01-25T20:07:41.614Z,37.75
2019-01-25T20:10:21.830Z,41.33
2019-01-25T20:13:01.790Z,38.15
2019-01-25T20:15:41.747Z,35.15
2019-01-25T20:18:21.703Z,33.02
2019-01-25T20:21:02.088Z,30.35
2019-01-25T20:23:42.126Z,29.42
2019-01-25T20:26:22.176Z,32.28
2019-01-25T20:29:02.954Z,26.35
2019-01-25T20:31:43.133Z,28.60
2019-01-25T20:34:23.012Z,22.82
2019-01-25T20:37:03.061Z,23.15
2019-01-25T20:39:42.980Z,29.15
2019-01-25T20:42:23.130Z,26.90
2019-01-25T20:45:03.214Z,49.17
2019-01-25T20:47:43.219Z,25.30
2019-01-25T20:50:23.148Z,21.62
2019-01-25T20:53:03.629Z,28.37
2019-01-25T20:55:44.080Z,22.22
2019-01-25T20:58:24.424Z,19.30
2019-01-25T21:01:04.323Z,18.92
2019-01-25T21:03:44.415Z,19.70
2019-01-25T21:06:24.455Z,20.48
2019-01-25T21:09:04.560Z,18.50
2019-01-25T21:11:44.353Z,17.87
2019-01-25T21:14:24.754Z,20.10
2019-01-25T21:17:05.068Z,16.83
2019-01-25T21:19:46.009Z,16.77
2019-01-25T21:22:26.313Z,14.75
2019-01-25T21:25:06.533Z,20.85
2019-01-25T21:27:46.779Z,17.30
2019-01-25T21:30:26.791Z,18.00
2019-01-25T21:33:06.728Z,17.37
2019-01-25T21:35:46.744Z,19.63
2019-01-25T21:38:27.093Z,18.33
2019-01-25T21:41:07.045Z,15.57
2019-01-25T21:43:47.189Z,17.43
2019-01-25T21:46:27.200Z,19.07
2019-01-25T21:49:07.316Z,18.43
2019-01-25T21:51:47.218Z,19.17
2019-01-25T21:54:27.351Z,22.57
2019-01-25T21:57:07.348Z,18.03
2019-01-25T21:59:47.188Z,15.80
2019-01-25T22:02:27.173Z,16.13
2019-01-25T22:05:07.026Z,15.93
2019-01-25T22:07:46.902Z,16.17
2019-01-25T22:10:27.093Z,17.47
2019-01-25T22:13:07.228Z,15.10
2019-01-25T22:15:51.092Z,15.63
2019-01-25T22:18:29.483Z,15.10
2019-01-25T22:21:09.588Z,13.23
2019-01-25T22:23:49.425Z,12.07
2019-01-25T22:26:29.587Z,12.53
2019-01-25T22:29:09.577Z,13.70
2019-01-25T22:31:49.711Z,12.17
2019-01-25T22:34:29.956Z,11.17
2019-01-25T22:37:09.915Z,14.07
2019-01-25T22:39:50.042Z,14.27
2019-01-25T22:42:30.256Z,13.17
2019-01-25T22:45:10.377Z,14.33
2019-01-25T22:47:50.510Z,12.70
2019-01-25T22:50:30.465Z,16.00
2019-01-25T22:53:10.439Z,12.30
2019-01-25T22:55:50.750Z,15.10
2019-01-25T22:58:30.989Z,11.37
2019-01-25T23:01:11.271Z,13.23
2019-01-25T23:03:51.107Z,12.87
2019-01-25T23:06:31.330Z,13.63
2019-01-25T23:09:11.501Z,11.83
2019-01-25T23:11:51.610Z,12.60
2019-01-25T23:14:31.662Z,11.10
2019-01-25T23:17:11.657Z,12.93
2019-01-25T23:19:51.817Z,12.17
2019-01-25T23:22:31.993Z,12.17
2019-01-25T23:25:12.001Z,11.67
2019-01-25T23:27:53.277Z,13.60
2019-01-25T23:30:33.232Z,13.47
2019-01-25T23:33:13.424Z,13.50
2019-01-25T23:35:53.291Z,11.93
2019-01-25T23:38:33.288Z,12.60
2019-01-25T23:41:13.425Z,14.47
2019-01-25T23:43:53.702Z,12.73
2019-01-25T23:46:33.321Z,11.83
2019-01-25T23:49:13.428Z,12.20
2019-01-25T23:51:53.406Z,11.87
2019-01-25T23:54:33.647Z,10.80
2019-01-25T23:57:13.680Z,11.83
2019-01-25T23:59:53.800Z,13.70
